Greifswald — 3FEC8 — position and weather

sailwx.info

Track history (hours):
 
Tides and Currents Weather Stations Pressure Air Temp Water Temp Dewpoint Dewpoint Depression Visibility Wind Speed Wind Dir Waves Ship Positions

Greifswald

Last reported at 2014-Jul-23 03:14 UTC. Time now 2014-Jul-23 11:51 UTC.
Position N 46°19' E 030°43'.

Length 191 m; draft 6.2 m.

Type: Ship. MMSI: 370492000.

Date/timePositionNaut miles runAvg speedWind from/ knotsBaromVisibWave heightAir tempDewpointWater temp
2014-Jul-23 03:14N 46°19' E 030°43'17 9.8
2014-Jul-23 01:29N 46°11' E 031°05'1311.3
2014-Jul-23 00:19N 46°02' E 031°18'811.2
2014-Jul-22 23:33N 45°56' E 031°26'1111.2
2014-Jul-22 22:33N 45°47' E 031°37'1111.0
2014-Jul-22 21:33N 45°40' E 031°48'13310.9
2014-Jul-22 09:19N 44°05' E 034°00'1311.4
2014-Jul-22 08:10N 43°59' E 034°17'711.3
2014-Jul-22 07:33N 43°57' E 034°26'1111.2
2014-Jul-22 06:33N 43°52' E 034°40'1111.1
2014-Jul-22 05:33N 43°48' E 034°54'1211.4
2014-Jul-22 04:31N 43°43' E 035°09'1111.8
2014-Jul-22 03:33N 43°39' E 035°24'1511.7
2014-Jul-22 02:16N 43°33' E 035°43'911.5
2014-Jul-22 01:29N 43°29' E 035°54'1011.0
2014-Jul-22 00:33N 43°25' E 036°07'1110.7
2014-Jul-21 23:33N 43°21' E 036°20'  
2014-Jul-15 07:07N 44°10' E 033°58'4 7.3
2014-Jul-15 06:33N 44°10' E 034°04'10 7.1
2014-Jul-15 05:05N 44°10' E 034°18'4 7.1
2014-Jul-15 04:32N 44°10' E 034°24'7 7.3
2014-Jul-15 03:33N 44°10' E 034°33'7 7.4
2014-Jul-15 02:33N 44°10' E 034°44'8 7.6
2014-Jul-15 01:33N 44°10' E 034°54'9 7.9
2014-Jul-15 00:22N 44°10' E 035°08'40 7.8
2014-Jul-14 19:19N 44°09' E 036°03'9 7.1
2014-Jul-14 18:03N 44°09' E 036°15'3 6.7
2014-Jul-14 17:33N 44°09' E 036°20'  
Track history (hours):
 
Tides and Currents Weather Stations Pressure Air Temp Water Temp Dewpoint Dewpoint Depression Visibility Wind Speed Wind Dir Waves Ship Positions

Greifswald

Last reported at 2014-Jul-23 03:14 UTC. Time now 2014-Jul-23 11:51 UTC.
Position N 46°19' E 030°43'.

Length 191 m; draft 6.2 m.

Type: Ship. MMSI: 370492000.

Date/timePositionNaut miles runAvg speedWind from/ knotsBaromVisibWave heightAir tempDewpointWater temp
2014-Jul-23 03:14N 46°19' E 030°43'17 9.8
2014-Jul-23 01:29N 46°11' E 031°05'1311.3
2014-Jul-23 00:19N 46°02' E 031°18'811.2
2014-Jul-22 23:33N 45°56' E 031°26'1111.2
2014-Jul-22 22:33N 45°47' E 031°37'1111.0
2014-Jul-22 21:33N 45°40' E 031°48'13310.9
2014-Jul-22 09:19N 44°05' E 034°00'1311.4
2014-Jul-22 08:10N 43°59' E 034°17'711.3
2014-Jul-22 07:33N 43°57' E 034°26'1111.2
2014-Jul-22 06:33N 43°52' E 034°40'1111.1
2014-Jul-22 05:33N 43°48' E 034°54'1211.4
2014-Jul-22 04:31N 43°43' E 035°09'1111.8
2014-Jul-22 03:33N 43°39' E 035°24'1511.7
2014-Jul-22 02:16N 43°33' E 035°43'911.5
2014-Jul-22 01:29N 43°29' E 035°54'1011.0
2014-Jul-22 00:33N 43°25' E 036°07'1110.7
2014-Jul-21 23:33N 43°21' E 036°20'  
2014-Jul-15 07:07N 44°10' E 033°58'4 7.3
2014-Jul-15 06:33N 44°10' E 034°04'10 7.1
2014-Jul-15 05:05N 44°10' E 034°18'4 7.1
2014-Jul-15 04:32N 44°10' E 034°24'7 7.3
2014-Jul-15 03:33N 44°10' E 034°33'7 7.4
2014-Jul-15 02:33N 44°10' E 034°44'8 7.6
2014-Jul-15 01:33N 44°10' E 034°54'9 7.9
2014-Jul-15 00:22N 44°10' E 035°08'40 7.8
2014-Jul-14 19:19N 44°09' E 036°03'9 7.1
2014-Jul-14 18:03N 44°09' E 036°15'3 6.7
2014-Jul-14 17:33N 44°09' E 036°20'  

Dump ship's entire track history